Time;durP1;ratioP1;P1;durP2;ratioP2;P2;SDS_P1;SDS_P2;PMS_P1;PMS_P2;Temp;Humidity;BMP_temperature;BMP_pressure;BME280_temperature;BME280_humidity;BME280_pressure;Samples;Min_cycle;Max_cycle;Signal;HPM_P1;HPM_P2
2022/07/22 00:02:04;;;;;;;;;;;25.90;50.60;;;;;;5023776;28;87418;-37
2022/07/22 00:04:30;;;;;;;;;;;25.90;50.70;;;;;;5022621;28;88003;-37
2022/07/22 00:06:55;;;;;;;;;;;25.80;50.60;;;;;;5022362;28;86941;-37
2022/07/22 00:09:21;;;;;;;;;;;25.90;50.70;;;;;;5022251;28;88816;-37
2022/07/22 00:11:47;;;;;;;;;;;25.90;50.70;;;;;;5025605;28;88798;-37
2022/07/22 00:14:12;;;;;;;;;;;25.80;50.60;;;;;;5022604;28;87308;-37
2022/07/22 00:16:38;;;;;;;;;;;25.80;50.60;;;;;;5022716;28;87835;-37
2022/07/22 00:19:03;;;;;;;;;;;25.80;50.60;;;;;;5023080;28;87331;-37
2022/07/22 00:21:29;;;;;;;;;;;25.70;50.50;;;;;;5023013;28;87826;-37
2022/07/22 00:23:55;;;;;;;;;;;25.70;50.60;;;;;;5022348;28;89433;-37
2022/07/22 00:26:20;;;;;;;;;;;25.80;50.60;;;;;;5023332;28;86265;-37
2022/07/22 00:28:46;;;;;;;;;;;25.70;50.60;;;;;;5022640;28;87090;-37
2022/07/22 00:31:11;;;;;;;;;;;25.70;50.60;;;;;;5022480;28;88126;-37
2022/07/22 00:33:37;;;;;;;;;;;25.70;50.60;;;;;;5025224;28;88177;-37
2022/07/22 00:36:02;;;;;;;;;;;25.70;50.50;;;;;;5022334;28;88096;-37
2022/07/22 00:38:28;;;;;;;;;;;25.70;50.60;;;;;;5022433;28;86905;-37
2022/07/22 00:40:53;;;;;;;;;;;25.70;50.60;;;;;;5022714;28;87423;-37
2022/07/22 00:43:19;;;;;;;;;;;25.60;50.60;;;;;;5022276;28;88058;-37
2022/07/22 00:45:44;;;;;;;;;;;25.70;50.60;;;;;;5022362;28;87161;-37
2022/07/22 00:48:10;;;;;;;;;;;25.60;51.20;;;;;;5022636;28;87594;-37
2022/07/22 00:50:36;;;;;;;;;;;25.60;50.70;;;;;;5022627;28;87277;-37
2022/07/22 00:53:01;;;;;;;;;;;25.60;50.60;;;;;;5022554;28;87115;-37
2022/07/22 00:55:27;;;;;;;;;;;25.60;50.50;;;;;;5025090;28;87459;-37
2022/07/22 00:57:53;;;;;;;;;;;25.60;50.60;;;;;;5021649;28;88240;-37
2022/07/22 01:00:20;;;;;;;;;;;25.60;50.60;;;;;;5022291;28;88420;-37
2022/07/22 01:02:46;;;;;;;;;;;25.50;50.60;;;;;;5021937;28;87980;-37
2022/07/22 01:05:12;;;;;;;;;;;25.50;50.60;;;;;;5022370;28;87032;-37
2022/07/22 01:07:38;;;;;;;;;;;25.50;50.60;;;;;;5022609;28;88731;-37
2022/07/22 01:10:04;;;;;;;;;;;25.50;50.60;;;;;;5021659;28;87937;-37
2022/07/22 01:12:29;;;;;;;;;;;25.40;50.50;;;;;;5021898;28;87057;-37
2022/07/22 01:14:55;;;;;;;;;;;25.50;50.60;;;;;;5022636;28;87461;-36
2022/07/22 01:17:20;;;;;;;;;;;25.40;50.60;;;;;;5026524;28;88443;-37
2022/07/22 01:19:46;;;;;;;;;;;25.40;50.60;;;;;;5025936;28;87484;-37
2022/07/22 01:22:11;;;;;;;;;;;25.40;50.60;;;;;;5024719;28;89029;-37
2022/07/22 01:24:37;;;;;;;;;;;25.40;50.60;;;;;;5025326;28;87118;-37
2022/07/22 01:27:02;;;;;;;;;;;25.40;50.60;;;;;;5025501;28;87450;-37
2022/07/22 01:29:28;;;;;;;;;;;25.40;50.60;;;;;;5025150;28;88271;-37
2022/07/22 01:31:54;;;;;;;;;;;25.40;50.60;;;;;;5025550;28;87023;-37
2022/07/22 01:34:19;;;;;;;;;;;25.30;50.50;;;;;;5025704;28;86910;-37
2022/07/22 01:36:45;;;;;;;;;;;25.30;50.60;;;;;;5025259;28;88388;-37
2022/07/22 01:39:11;;;;;;;;;;;25.30;50.60;;;;;;5028905;28;86590;-37
2022/07/22 01:41:37;;;;;;;;;;;25.20;50.60;;;;;;5024907;28;89812;-37
2022/07/22 01:44:02;;;;;;;;;;;25.30;50.60;;;;;;5025130;28;87131;-37
2022/07/22 01:46:28;;;;;;;;;;;25.20;50.50;;;;;;5024201;28;87973;-37
2022/07/22 01:48:53;;;;;;;;;;;25.20;50.50;;;;;;5024867;28;88104;-37
2022/07/22 01:51:19;;;;;;;;;;;25.20;50.50;;;;;;5025368;28;87098;-37
2022/07/22 01:53:45;;;;;;;;;;;25.20;50.60;;;;;;5025393;28;87057;-37
2022/07/22 01:56:11;;;;;;;;;;;25.20;50.50;;;;;;5024961;28;87239;-37
2022/07/22 01:58:36;;;;;;;;;;;25.20;50.60;;;;;;5027963;28;87102;-37
2022/07/22 02:01:02;;;;;;;;;;;25.20;50.60;;;;;;5024683;28;88183;-37
2022/07/22 02:03:27;;;;;;;;;;;25.10;50.50;;;;;;5025707;28;86380;-37
2022/07/22 02:05:53;;;;;;;;;;;25.10;50.50;;;;;;5025123;28;86980;-37
2022/07/22 02:08:18;;;;;;;;;;;25.10;50.50;;;;;;5024889;28;88279;-37
2022/07/22 02:10:44;;;;;;;;;;;25.10;50.60;;;;;;5024406;28;88092;-37
2022/07/22 02:13:10;;;;;;;;;;;25.10;50.50;;;;;;5024979;28;88552;-37
2022/07/22 02:15:36;;;;;;;;;;;25.10;50.60;;;;;;5024311;28;87843;-36
2022/07/22 02:18:11;;;;;;;;;;;25.00;50.50;;;;;;5025018;28;87014;-36
2022/07/22 02:20:37;;;;;;;;;;;25.00;50.50;;;;;;5027554;28;87538;-37
2022/07/22 02:23:02;;;;;;;;;;;25.00;50.50;;;;;;5025208;28;87426;-37
2022/07/22 02:25:28;;;;;;;;;;;25.00;50.60;;;;;;5024888;28;87550;-37
2022/07/22 02:27:53;;;;;;;;;;;25.00;50.60;;;;;;5024183;28;86685;-37
2022/07/22 02:30:19;;;;;;;;;;;25.00;50.60;;;;;;5024501;28;87115;-37
2022/07/22 02:32:44;;;;;;;;;;;24.90;50.60;;;;;;5024710;28;87585;-37
2022/07/22 02:35:10;;;;;;;;;;;24.90;50.60;;;;;;5023665;28;88142;-37
2022/07/22 02:37:37;;;;;;;;;;;24.90;50.50;;;;;;5024581;28;87139;-37
2022/07/22 02:40:03;;;;;;;;;;;24.90;50.50;;;;;;5024436;28;89063;-37
2022/07/22 02:42:29;;;;;;;;;;;24.80;50.60;;;;;;5027082;28;88783;-37
2022/07/22 02:44:54;;;;;;;;;;;24.80;50.60;;;;;;5024058;28;87505;-37
2022/07/22 02:47:20;;;;;;;;;;;24.80;50.60;;;;;;5024294;28;87293;-37
2022/07/22 02:49:45;;;;;;;;;;;24.80;50.50;;;;;;5024454;28;87133;-37
2022/07/22 02:52:11;;;;;;;;;;;24.80;50.50;;;;;;5024554;28;88901;-37
2022/07/22 02:54:36;;;;;;;;;;;24.80;50.60;;;;;;5023818;28;88036;-37
2022/07/22 02:57:02;;;;;;;;;;;24.80;50.60;;;;;;5023984;28;87221;-37
2022/07/22 02:59:27;;;;;;;;;;;24.70;50.50;;;;;;5023361;28;88394;-37
2022/07/22 03:01:53;;;;;;;;;;;24.70;50.50;;;;;;5023501;28;88237;-37
2022/07/22 03:04:18;;;;;;;;;;;24.70;50.50;;;;;;5027362;28;87149;-37
2022/07/22 03:06:44;;;;;;;;;;;24.70;50.60;;;;;;5023832;28;87141;-37
2022/07/22 03:09:09;;;;;;;;;;;24.70;50.50;;;;;;5024133;28;87155;-37
2022/07/22 03:11:35;;;;;;;;;;;24.60;50.50;;;;;;5023940;28;87471;-37
2022/07/22 03:14:00;;;;;;;;;;;24.60;50.50;;;;;;5023776;28;88165;-37
2022/07/22 03:16:26;;;;;;;;;;;24.60;50.50;;;;;;5024472;28;86197;-37
2022/07/22 03:18:51;;;;;;;;;;;24.60;50.60;;;;;;5024015;28;86934;-37
2022/07/22 03:21:17;;;;;;;;;;;24.60;50.60;;;;;;5023472;28;88175;-37
2022/07/22 03:23:42;;;;;;;;;;;24.50;50.50;;;;;;5023077;28;88060;-37
2022/07/22 03:26:08;;;;;;;;;;;24.50;50.60;;;;;;5026263;28;89900;-37
2022/07/22 03:28:33;;;;;;;;;;;24.50;50.60;;;;;;5023751;28;87045;-37
2022/07/22 03:30:59;;;;;;;;;;;24.50;50.60;;;;;;5023516;28;87541;-37
2022/07/22 03:33:24;;;;;;;;;;;24.50;50.60;;;;;;5023382;28;88073;-37
2022/07/22 03:35:50;;;;;;;;;;;24.50;50.60;;;;;;5023875;28;87026;-37
2022/07/22 03:38:15;;;;;;;;;;;24.50;50.60;;;;;;5023445;28;88883;-37
2022/07/22 03:40:41;;;;;;;;;;;24.40;50.60;;;;;;5023653;28;86572;-37
2022/07/22 03:43:06;;;;;;;;;;;24.40;50.60;;;;;;5023488;28;87132;-37
2022/07/22 03:45:32;;;;;;;;;;;24.40;50.60;;;;;;5025485;28;87492;-37
2022/07/22 03:47:57;;;;;;;;;;;24.40;50.60;;;;;;5022837;28;88046;-37
2022/07/22 03:50:23;;;;;;;;;;;24.30;50.60;;;;;;5023327;28;88998;-37
2022/07/22 03:52:49;;;;;;;;;;;24.30;50.60;;;;;;5023274;28;88163;-37
2022/07/22 03:55:15;;;;;;;;;;;24.30;50.70;;;;;;5023094;28;86889;-37
2022/07/22 03:57:41;;;;;;;;;;;24.30;50.60;;;;;;5023248;28;87560;-37
2022/07/22 04:00:07;;;;;;;;;;;24.30;50.70;;;;;;5022990;28;88064;-37
2022/07/22 04:02:32;;;;;;;;;;;24.30;50.60;;;;;;5023152;28;87140;-37
2022/07/22 04:04:58;;;;;;;;;;;24.30;50.70;;;;;;5023660;28;87431;-37
2022/07/22 04:07:23;;;;;;;;;;;24.30;50.70;;;;;;5025660;28;88627;-37
2022/07/22 04:09:49;;;;;;;;;;;24.30;50.70;;;;;;5023067;28;87594;-37
2022/07/22 04:12:14;;;;;;;;;;;24.20;50.70;;;;;;5022209;28;88793;-37
2022/07/22 04:14:40;;;;;;;;;;;24.20;50.70;;;;;;5022656;28;87111;-37
2022/07/22 04:17:05;;;;;;;;;;;24.20;50.70;;;;;;5022983;28;87337;-37
2022/07/22 04:19:31;;;;;;;;;;;24.20;50.80;;;;;;5022750;28;88256;-37
2022/07/22 04:21:56;;;;;;;;;;;24.20;50.80;;;;;;5022965;28;87156;-37
2022/07/22 04:24:22;;;;;;;;;;;24.10;50.70;;;;;;5023019;28;87442;-37
2022/07/22 04:26:48;;;;;;;;;;;24.10;50.80;;;;;;5022596;28;87216;-37
2022/07/22 04:29:13;;;;;;;;;;;24.10;50.70;;;;;;5025772;28;86367;-37
2022/07/22 04:31:39;;;;;;;;;;;24.10;50.80;;;;;;5022418;28;87664;-37
2022/07/22 04:34:04;;;;;;;;;;;24.10;50.70;;;;;;5022840;28;87239;-37
2022/07/22 04:36:30;;;;;;;;;;;24.10;50.80;;;;;;5022354;28;87863;-37
2022/07/22 04:38:55;;;;;;;;;;;24.10;50.80;;;;;;5022324;28;88085;-37
2022/07/22 04:41:21;;;;;;;;;;;24.10;50.80;;;;;;5022671;28;87236;-37
2022/07/22 04:43:46;;;;;;;;;;;24.10;50.80;;;;;;5022755;28;86907;-37
2022/07/22 04:46:12;;;;;;;;;;;24.00;50.80;;;;;;5021380;28;88571;-37
2022/07/22 04:48:37;;;;;;;;;;;24.00;50.90;;;;;;5022426;28;87169;-37
2022/07/22 04:51:03;;;;;;;;;;;24.00;50.90;;;;;;5024490;28;87508;-37
2022/07/22 04:53:28;;;;;;;;;;;24.00;50.90;;;;;;5022932;28;86434;-37
2022/07/22 04:55:54;;;;;;;;;;;24.00;51.00;;;;;;5022622;28;86940;-37
2022/07/22 04:58:20;;;;;;;;;;;24.00;51.00;;;;;;5021867;28;89353;-37
2022/07/22 05:00:46;;;;;;;;;;;24.00;51.00;;;;;;5021764;28;88416;-37
2022/07/22 05:03:12;;;;;;;;;;;24.00;51.00;;;;;;5022397;28;88382;-37
2022/07/22 05:05:37;;;;;;;;;;;24.00;51.00;;;;;;5022034;28;88100;-37
2022/07/22 05:08:03;;;;;;;;;;;24.00;51.00;;;;;;5022165;28;88117;-37
2022/07/22 05:10:28;;;;;;;;;;;24.00;51.00;;;;;;5021996;28;88864;-37
2022/07/22 05:12:54;;;;;;;;;;;24.00;51.00;;;;;;5024971;28;88525;-37
2022/07/22 05:15:19;;;;;;;;;;;24.00;51.00;;;;;;5022046;28;86986;-37
2022/07/22 05:17:45;;;;;;;;;;;24.00;51.10;;;;;;5022278;28;87434;-37
2022/07/22 05:20:10;;;;;;;;;;;24.00;51.10;;;;;;5022256;28;86925;-36
2022/07/22 05:22:36;;;;;;;;;;;24.00;51.10;;;;;;5022264;28;87260;-37
2022/07/22 05:25:02;;;;;;;;;;;24.00;51.10;;;;;;5020989;28;88959;-37
2022/07/22 05:27:27;;;;;;;;;;;23.90;51.00;;;;;;5022255;28;87180;-37
2022/07/22 05:29:53;;;;;;;;;;;23.90;51.10;;;;;;5021920;28;87080;-37
2022/07/22 05:32:18;;;;;;;;;;;23.90;51.70;;;;;;5021748;28;87985;-36
2022/07/22 05:34:44;;;;;;;;;;;23.90;51.20;;;;;;5025073;28;86969;-37
2022/07/22 05:37:10;;;;;;;;;;;23.90;51.20;;;;;;5021523;28;88357;-37
2022/07/22 05:39:35;;;;;;;;;;;23.90;51.30;;;;;;5021772;28;87021;-37
2022/07/22 05:42:01;;;;;;;;;;;24.00;51.40;;;;;;5022578;28;86613;-37
2022/07/22 05:44:26;;;;;;;;;;;23.90;51.40;;;;;;5021589;28;88095;-37
2022/07/22 05:46:52;;;;;;;;;;;24.00;51.50;;;;;;5021655;28;87130;-37
2022/07/22 05:49:18;;;;;;;;;;;23.90;51.50;;;;;;5021223;28;87962;-37
2022/07/22 05:51:43;;;;;;;;;;;23.90;51.50;;;;;;5021493;28;87939;-37
2022/07/22 05:54:09;;;;;;;;;;;23.90;51.50;;;;;;5024589;28;87185;-37
2022/07/22 05:56:34;;;;;;;;;;;23.90;51.50;;;;;;5021609;28;87167;-37
2022/07/22 05:59:00;;;;;;;;;;;23.90;51.60;;;;;;5021735;28;87137;-37
2022/07/22 06:01:26;;;;;;;;;;;24.00;51.70;;;;;;5021673;28;87476;-37
2022/07/22 06:03:51;;;;;;;;;;;23.90;51.60;;;;;;5023634;28;89239;-37
2022/07/22 06:06:17;;;;;;;;;;;23.90;51.60;;;;;;5025703;28;86227;-37
2022/07/22 06:08:42;;;;;;;;;;;23.90;51.70;;;;;;5025040;28;87080;-36
2022/07/22 06:11:08;;;;;;;;;;;23.90;51.70;;;;;;5024698;28;88185;-37
2022/07/22 06:13:33;;;;;;;;;;;23.90;51.70;;;;;;5024194;28;88071;-37
2022/07/22 06:15:59;;;;;;;;;;;23.90;51.70;;;;;;5027636;28;88296;-36
2022/07/22 06:18:25;;;;;;;;;;;23.90;51.80;;;;;;5024815;28;87171;-37
2022/07/22 06:20:51;;;;;;;;;;;23.90;51.80;;;;;;5024834;28;87395;-37
2022/07/22 06:23:16;;;;;;;;;;;23.90;51.70;;;;;;5024465;28;87880;-37
2022/07/22 06:25:42;;;;;;;;;;;23.90;51.90;;;;;;5024842;28;87195;-36
2022/07/22 06:28:07;;;;;;;;;;;24.00;51.90;;;;;;5024747;28;87461;-37
2022/07/22 06:30:33;;;;;;;;;;;24.00;52.00;;;;;;5024477;28;87307;-36
2022/07/22 06:32:59;;;;;;;;;;;24.00;52.00;;;;;;5024747;28;87122;-37
2022/07/22 06:35:24;;;;;;;;;;;23.90;52.00;;;;;;5024686;28;87470;-37
2022/07/22 06:37:50;;;;;;;;;;;24.00;52.00;;;;;;5026518;28;88989;-37
2022/07/22 06:40:16;;;;;;;;;;;24.00;52.10;;;;;;5024573;28;88428;-37
2022/07/22 06:42:41;;;;;;;;;;;24.00;52.10;;;;;;5024109;28;88202;-37
2022/07/22 06:45:07;;;;;;;;;;;24.00;52.00;;;;;;5023826;28;87203;-37
2022/07/22 06:47:35;;;;;;;;;;;23.90;52.10;;;;;;5024658;28;87404;-36
2022/07/22 06:50:01;;;;;;;;;;;23.90;52.10;;;;;;5023742;28;89430;-37
2022/07/22 06:52:27;;;;;;;;;;;23.90;52.10;;;;;;5024361;28;87113;-36
2022/07/22 06:54:53;;;;;;;;;;;24.00;52.10;;;;;;5024716;28;88913;-37
2022/07/22 06:57:18;;;;;;;;;;;24.00;52.10;;;;;;5024058;28;88104;-37
2022/07/22 06:59:44;;;;;;;;;;;23.90;52.20;;;;;;5027132;28;87144;-37
2022/07/22 07:02:09;;;;;;;;;;;23.90;52.10;;;;;;5023010;28;89555;-37
2022/07/22 07:04:35;;;;;;;;;;;24.00;52.10;;;;;;5024076;28;87184;-37
2022/07/22 07:07:00;;;;;;;;;;;24.00;52.20;;;;;;5024394;28;87098;-37
2022/07/22 07:09:26;;;;;;;;;;;24.00;52.20;;;;;;5023724;28;88206;-37
2022/07/22 07:11:51;;;;;;;;;;;24.00;52.20;;;;;;5024005;28;87126;-37
2022/07/22 07:14:17;;;;;;;;;;;24.00;52.20;;;;;;5023299;28;87675;-37
2022/07/22 07:16:42;;;;;;;;;;;24.00;52.20;;;;;;5022229;28;89534;-37
2022/07/22 07:19:08;;;;;;;;;;;24.00;52.20;;;;;;5024342;28;86416;-37
2022/07/22 07:21:33;;;;;;;;;;;24.00;52.10;;;;;;5026621;28;87051;-37
2022/07/22 07:23:59;;;;;;;;;;;24.00;52.20;;;;;;5023928;28;86952;-37
2022/07/22 07:26:25;;;;;;;;;;;24.00;52.30;;;;;;5023113;28;89188;-37
2022/07/22 07:28:50;;;;;;;;;;;24.00;52.20;;;;;;5023302;28;88118;-37
2022/07/22 07:31:17;;;;;;;;;;;24.00;52.30;;;;;;5023665;28;87215;-37
2022/07/22 07:33:42;;;;;;;;;;;24.00;52.20;;;;;;5023714;28;87559;-36
2022/07/22 07:36:08;;;;;;;;;;;24.00;52.20;;;;;;5023328;28;88015;-37
2022/07/22 07:38:34;;;;;;;;;;;24.00;52.20;;;;;;5023955;28;87160;-37
2022/07/22 07:40:59;;;;;;;;;;;24.00;52.30;;;;;;5023465;28;87060;-37
2022/07/22 07:43:25;;;;;;;;;;;24.00;52.20;;;;;;5026325;28;88860;-37
2022/07/22 07:45:50;;;;;;;;;;;24.10;52.30;;;;;;5022939;28;87515;-37
2022/07/22 07:48:16;;;;;;;;;;;24.00;52.20;;;;;;5023105;28;88042;-37
2022/07/22 07:50:42;;;;;;;;;;;24.00;52.20;;;;;;5022420;28;88058;-37
2022/07/22 07:53:07;;;;;;;;;;;24.00;52.30;;;;;;5023551;28;88510;-37
2022/07/22 07:55:36;;;;;;;;;;;24.10;53.00;;;;;;5021444;28;88404;-37
2022/07/22 07:58:02;;;;;;;;;;;24.00;52.20;;;;;;5023068;28;87134;-37
2022/07/22 08:00:28;;;;;;;;;;;24.00;52.20;;;;;;5023029;28;87403;-37
2022/07/22 08:02:55;;;;;;;;;;;24.10;52.20;;;;;;5025370;28;89440;-37
2022/07/22 08:05:21;;;;;;;;;;;24.10;52.20;;;;;;5023044;28;89245;-36
2022/07/22 08:07:47;;;;;;;;;;;24.00;52.10;;;;;;5023022;28;88733;-37
2022/07/22 08:10:12;;;;;;;;;;;24.10;52.20;;;;;;5023026;28;87141;-37
2022/07/22 08:12:38;;;;;;;;;;;24.10;52.10;;;;;;5023336;28;87357;-37
2022/07/22 08:15:04;;;;;;;;;;;24.10;52.10;;;;;;5021864;28;89181;-37
2022/07/22 08:17:29;;;;;;;;;;;24.10;52.20;;;;;;5022852;28;87197;-36
2022/07/22 08:19:55;;;;;;;;;;;24.10;52.10;;;;;;5021736;28;88357;-36
2022/07/22 08:22:20;;;;;;;;;;;24.10;52.10;;;;;;5022818;28;88011;-36
2022/07/22 08:24:46;;;;;;;;;;;24.10;52.10;;;;;;5025803;28;87358;-36
2022/07/22 08:27:11;;;;;;;;;;;24.20;52.10;;;;;;5021720;28;87630;-36
2022/07/22 08:29:37;;;;;;;;;;;24.20;52.20;;;;;;5022651;28;87142;-36
2022/07/22 08:32:03;;;;;;;;;;;24.20;52.20;;;;;;5023339;28;88018;-35
2022/07/22 08:34:28;;;;;;;;;;;24.20;52.00;;;;;;5022071;28;89962;-35
2022/07/22 08:36:54;;;;;;;;;;;24.20;52.00;;;;;;5022759;28;87213;-36
2022/07/22 08:39:19;;;;;;;;;;;24.20;52.10;;;;;;5020654;28;90645;-36
2022/07/22 08:41:45;;;;;;;;;;;24.30;52.00;;;;;;5022470;28;88243;-36
2022/07/22 08:44:10;;;;;;;;;;;24.30;51.90;;;;;;5022743;28;87233;-36
2022/07/22 08:46:36;;;;;;;;;;;24.30;52.10;;;;;;5024713;28;87441;-36
2022/07/22 08:49:02;;;;;;;;;;;24.30;51.90;;;;;;5022781;28;87113;-36
2022/07/22 08:51:28;;;;;;;;;;;24.30;51.80;;;;;;5021137;28;87063;-36
2022/07/22 08:53:54;;;;;;;;;;;24.30;51.80;;;;;;5021936;28;89368;-36
2022/07/22 08:56:19;;;;;;;;;;;24.30;51.80;;;;;;5021597;28;86349;-36
2022/07/22 08:58:45;;;;;;;;;;;24.30;51.80;;;;;;5022419;28;87100;-36
2022/07/22 09:01:14;;;;;;;;;;;24.30;51.70;;;;;;5021804;28;89559;-35
2022/07/22 09:03:50;;;;;;;;;;;24.40;51.80;;;;;;5021471;28;88253;-35
2022/07/22 09:06:16;;;;;;;;;;;24.30;51.80;;;;;;5022210;28;88150;-36
2022/07/22 09:08:49;;;;;;;;;;;24.40;52.10;;;;;;5025117;28;87827;-35
2022/07/22 09:11:18;;;;;;;;;;;24.40;52.00;;;;;;5022338;28;87766;-35
2022/07/22 09:13:45;;;;;;;;;;;24.40;51.70;;;;;;5021800;28;88131;-36
2022/07/22 09:16:10;;;;;;;;;;;24.40;51.70;;;;;;5022313;28;87141;-36
2022/07/22 09:18:48;;;;;;;;;;;24.40;51.70;;;;;;5022219;28;87377;-36
2022/07/22 09:21:14;;;;;;;;;;;24.50;51.80;;;;;;5020768;28;90727;-36
2022/07/22 09:23:41;;;;;;;;;;;24.50;51.80;;;;;;5022054;28;87146;-36
2022/07/22 09:26:06;;;;;;;;;;;24.50;51.70;;;;;;5021841;28;88871;-36
2022/07/22 09:28:32;;;;;;;;;;;24.50;51.80;;;;;;5021257;28;88944;-36
2022/07/22 09:30:58;;;;;;;;;;;24.50;51.70;;;;;;5024778;28;87134;-35
2022/07/22 09:33:23;;;;;;;;;;;24.60;51.70;;;;;;5021933;28;88128;-36
2022/07/22 09:35:49;;;;;;;;;;;24.60;51.70;;;;;;5022175;28;87230;-35
2022/07/22 09:38:15;;;;;;;;;;;24.60;51.80;;;;;;5023866;28;87345;-35
2022/07/22 09:40:50;;;;;;;;;;;24.60;51.70;;;;;;5024977;28;87316;-35
2022/07/22 09:43:17;;;;;;;;;;;24.60;51.70;;;;;;5026047;28;87394;-36
2022/07/22 09:46:00;;;;;;;;;;;24.60;51.80;;;;;;5025250;28;88840;-36
2022/07/22 09:48:26;;;;;;;;;;;24.70;51.80;;;;;;5025127;28;87992;-36
2022/07/22 09:50:53;;;;;;;;;;;24.70;51.70;;;;;;5025059;28;87040;-35
2022/07/22 09:53:20;;;;;;;;;;;24.70;51.60;;;;;;5026886;28;88772;-36
2022/07/22 09:55:45;;;;;;;;;;;24.70;51.50;;;;;;5025558;28;87113;-36
2022/07/22 09:58:12;;;;;;;;;;;24.70;51.60;;;;;;5025244;28;88456;-36
2022/07/22 10:00:38;;;;;;;;;;;24.80;52.30;;;;;;5024519;28;89427;-35
2022/07/22 10:03:05;;;;;;;;;;;24.80;51.60;;;;;;5025175;28;87098;-36
2022/07/22 10:05:32;;;;;;;;;;;24.80;51.60;;;;;;5025105;28;87448;-36
2022/07/22 10:07:59;;;;;;;;;;;24.80;51.70;;;;;;5024520;28;88139;-36
2022/07/22 10:10:26;;;;;;;;;;;24.80;51.60;;;;;;5025345;28;86245;-36
2022/07/22 10:12:52;;;;;;;;;;;24.90;51.50;;;;;;5027451;28;88195;-36
2022/07/22 10:15:18;;;;;;;;;;;24.80;51.40;;;;;;5024507;28;87093;-36
2022/07/22 10:17:48;;;;;;;;;;;24.90;51.40;;;;;;5024596;28;88257;-35
2022/07/22 10:20:16;;;;;;;;;;;24.90;51.50;;;;;;5024395;28;88053;-36
2022/07/22 10:22:45;;;;;;;;;;;24.90;51.40;;;;;;5024708;28;87061;-36
2022/07/22 10:25:12;;;;;;;;;;;25.00;51.40;;;;;;5024535;28;88587;-35
2022/07/22 10:27:52;;;;;;;;;;;25.00;51.30;;;;;;5024328;28;87890;-36
2022/07/22 10:30:20;;;;;;;;;;;25.00;51.30;;;;;;5024385;28;86979;-35
2022/07/22 10:33:01;;;;;;;;;;;25.00;51.30;;;;;;5024848;28;87380;-36
2022/07/22 10:35:26;;;;;;;;;;;25.00;51.40;;;;;;5027363;28;88701;-36
2022/07/22 10:37:54;;;;;;;;;;;25.00;51.40;;;;;;5024651;28;86948;-36
2022/07/22 10:40:21;;;;;;;;;;;25.10;51.40;;;;;;5024056;28;88038;-35
2022/07/22 10:43:11;;;;;;;;;;;25.00;51.40;;;;;;5023970;28;88043;-36
2022/07/22 10:45:43;;;;;;;;;;;25.10;51.40;;;;;;5023515;28;89877;-35
2022/07/22 10:48:35;;;;;;;;;;;25.10;51.50;;;;;;5024050;28;88052;-36
2022/07/22 10:51:14;;;;;;;;;;;25.10;51.30;;;;;;5006210;28;87281;-36
2022/07/22 10:53:42;;;;;;;;;;;25.20;51.30;;;;;;5024471;28;87365;-36
2022/07/22 10:56:13;;;;;;;;;;;25.20;51.30;;;;;;5023852;28;88098;-35
2022/07/22 10:58:43;;;;;;;;;;;25.20;51.30;;;;;;5027300;28;87125;-35
2022/07/22 11:01:10;;;;;;;;;;;25.20;51.20;;;;;;5024280;28;86326;-36
2022/07/22 11:03:37;;;;;;;;;;;25.30;51.30;;;;;;5024106;28;87134;-36
2022/07/22 11:06:14;;;;;;;;;;;25.30;51.20;;;;;;5024037;28;87600;-35
2022/07/22 11:08:40;;;;;;;;;;;25.30;51.30;;;;;;5022999;28;88867;-36
2022/07/22 11:11:06;;;;;;;;;;;25.30;51.10;;;;;;5024109;28;87172;-36
2022/07/22 11:13:36;;;;;;;;;;;25.30;51.20;;;;;;5024185;28;87491;-36
2022/07/22 11:16:14;;;;;;;;;;;25.30;51.00;;;;;;5023544;28;88406;-35
2022/07/22 11:18:48;;;;;;;;;;;25.40;51.00;;;;;;5023962;28;87119;-35
2022/07/22 11:21:21;;;;;;;;;;;25.40;51.10;;;;;;5025065;28;90976;-36
2022/07/22 11:23:48;;;;;;;;;;;25.40;51.00;;;;;;5024049;28;87176;-36
2022/07/22 11:26:15;;;;;;;;;;;25.40;50.60;;;;;;5024353;28;86597;-36
2022/07/22 11:28:42;;;;;;;;;;;25.40;50.90;;;;;;5023577;28;87885;-36
2022/07/22 11:31:13;;;;;;;;;;;25.50;50.90;;;;;;5023434;28;87080;-36
2022/07/22 11:33:38;;;;;;;;;;;25.50;50.60;;;;;;5022936;28;87906;-36
2022/07/22 11:36:05;;;;;;;;;;;25.50;50.60;;;;;;5023448;28;87982;-36
2022/07/22 11:38:40;;;;;;;;;;;25.50;50.70;;;;;;5023818;28;87196;-36
2022/07/22 11:41:06;;;;;;;;;;;25.60;50.70;;;;;;5023307;28;88894;-36
2022/07/22 11:43:39;;;;;;;;;;;25.60;51.30;;;;;;5026157;28;87930;-35
2022/07/22 11:46:04;;;;;;;;;;;25.60;50.60;;;;;;5023438;28;87402;-36
2022/07/22 11:48:30;;;;;;;;;;;25.60;50.70;;;;;;5022970;28;88265;-36
2022/07/22 11:51:01;;;;;;;;;;;25.70;50.70;;;;;;5023539;28;86289;-36
2022/07/22 11:53:27;;;;;;;;;;;25.70;50.70;;;;;;5023616;28;87009;-36
2022/07/22 11:55:56;;;;;;;;;;;25.70;51.20;;;;;;5023211;28;87655;-36
2022/07/22 11:58:35;;;;;;;;;;;25.70;50.70;;;;;;5022750;28;88044;-36
2022/07/22 12:01:00;;;;;;;;;;;25.70;50.60;;;;;;5023176;28;88529;-36
2022/07/22 12:03:26;;;;;;;;;;;25.80;50.70;;;;;;5022859;28;88116;-36
2022/07/22 12:05:52;;;;;;;;;;;25.80;50.60;;;;;;5026011;28;87070;-35
2022/07/22 12:08:17;;;;;;;;;;;25.80;50.50;;;;;;5022822;28;87958;-36
2022/07/22 12:10:43;;;;;;;;;;;25.80;50.50;;;;;;5023118;28;87121;-36
2022/07/22 12:13:11;;;;;;;;;;;25.80;50.50;;;;;;5023001;28;88997;-36
2022/07/22 12:15:36;;;;;;;;;;;25.90;50.60;;;;;;5023101;28;88667;-36
2022/07/22 12:18:15;;;;;;;;;;;25.90;50.40;;;;;;5022762;28;87101;-36
2022/07/22 12:20:44;;;;;;;;;;;25.90;50.20;;;;;;5022787;28;89037;-36
2022/07/22 12:23:10;;;;;;;;;;;26.00;50.30;;;;;;5021857;28;90305;-36
2022/07/22 12:25:49;;;;;;;;;;;26.00;50.30;;;;;;5025671;28;87158;-35
2022/07/22 12:28:14;;;;;;;;;;;26.00;50.30;;;;;;5022350;28;89332;-36
2022/07/22 12:30:41;;;;;;;;;;;26.00;50.20;;;;;;5022838;28;87147;-36
2022/07/22 12:33:12;;;;;;;;;;;26.00;50.10;;;;;;5023058;28;87464;-36
2022/07/22 12:35:38;;;;;;;;;;;26.10;50.20;;;;;;5022120;28;89542;-36
2022/07/22 12:38:07;;;;;;;;;;;26.10;50.10;;;;;;5022805;28;87405;-36
2022/07/22 12:40:33;;;;;;;;;;;26.10;50.20;;;;;;5022796;28;88935;-36
2022/07/22 12:42:59;;;;;;;;;;;26.10;50.20;;;;;;5022485;28;88043;-36
2022/07/22 12:45:25;;;;;;;;;;;26.20;50.30;;;;;;5022481;28;87333;-36
2022/07/22 12:47:54;;;;;;;;;;;26.20;50.30;;;;;;5024880;28;88086;-36
2022/07/22 12:50:23;;;;;;;;;;;26.20;50.30;;;;;;5022376;28;87180;-36
2022/07/22 12:52:49;;;;;;;;;;;26.30;50.30;;;;;;5022215;28;87875;-36
2022/07/22 12:55:15;;;;;;;;;;;26.30;50.30;;;;;;5021861;28;88034;-36
2022/07/22 12:57:40;;;;;;;;;;;26.30;50.30;;;;;;5022607;28;87123;-36
2022/07/22 13:00:06;;;;;;;;;;;26.30;50.20;;;;;;5022375;28;87468;-36
2022/07/22 13:02:32;;;;;;;;;;;26.30;50.10;;;;;;5021413;28;89361;-36
2022/07/22 13:04:57;;;;;;;;;;;26.40;50.10;;;;;;5022643;28;86411;-36
2022/07/22 13:07:23;;;;;;;;;;;26.40;50.00;;;;;;5022244;28;87499;-36
2022/07/22 13:09:48;;;;;;;;;;;26.40;50.00;;;;;;5024305;28;88252;-36
2022/07/22 13:12:14;;;;;;;;;;;26.40;50.00;;;;;;5021644;28;88005;-36
2022/07/22 13:14:39;;;;;;;;;;;26.50;50.10;;;;;;5025279;28;87638;-36
2022/07/22 13:17:05;;;;;;;;;;;26.50;49.80;;;;;;5025621;28;86920;-36
2022/07/22 13:19:30;;;;;;;;;;;26.50;50.00;;;;;;5025540;28;87121;-36
2022/07/22 13:21:56;;;;;;;;;;;26.50;49.70;;;;;;5025394;28;87694;-36
2022/07/22 13:24:21;;;;;;;;;;;26.50;50.00;;;;;;5025309;28;87034;-36
2022/07/22 13:26:47;;;;;;;;;;;26.60;49.80;;;;;;5024215;28;89583;-36
2022/07/22 13:29:12;;;;;;;;;;;26.60;49.70;;;;;;5025552;28;87473;-36
2022/07/22 13:31:38;;;;;;;;;;;26.70;49.70;;;;;;5028244;28;87154;-36
2022/07/22 13:34:03;;;;;;;;;;;26.60;49.50;;;;;;5025122;28;87977;-36
2022/07/22 13:36:32;;;;;;;;;;;26.70;49.80;;;;;;5024877;28;87976;-36
2022/07/22 13:38:58;;;;;;;;;;;26.70;49.50;;;;;;5024962;28;88980;-36
2022/07/22 13:41:23;;;;;;;;;;;26.80;49.70;;;;;;5024857;28;89238;-36
2022/07/22 13:43:50;;;;;;;;;;;26.80;49.70;;;;;;5025211;28;87001;-36
2022/07/22 13:46:16;;;;;;;;;;;26.80;49.30;;;;;;5024370;28;88844;-36
2022/07/22 13:48:42;;;;;;;;;;;26.90;49.50;;;;;;5025202;28;87878;-36
2022/07/22 13:51:08;;;;;;;;;;;26.90;49.50;;;;;;5024616;28;87119;-36
2022/07/22 13:53:33;;;;;;;;;;;26.90;49.40;;;;;;5026528;28;90480;-36
2022/07/22 13:55:59;;;;;;;;;;;26.90;49.40;;;;;;5024711;28;87150;-36
2022/07/22 13:58:24;;;;;;;;;;;26.90;49.40;;;;;;5025138;28;87309;-36
2022/07/22 14:00:50;;;;;;;;;;;27.00;49.40;;;;;;5023778;28;89048;-36
2022/07/22 14:03:15;;;;;;;;;;;27.00;49.00;;;;;;5024653;28;87111;-36
2022/07/22 14:05:41;;;;;;;;;;;27.00;49.00;;;;;;5024941;28;87535;-36
2022/07/22 14:08:06;;;;;;;;;;;27.00;49.20;;;;;;5024469;28;88134;-36
2022/07/22 14:10:32;;;;;;;;;;;27.10;49.30;;;;;;5024580;28;86997;-36
2022/07/22 14:12:57;;;;;;;;;;;27.10;48.70;;;;;;5027481;28;87493;-36